TimeEST,TemperatureF,Dew PointF,Humidity,Sea Level PressureIn,VisibilityMPH,Wind Direction,Wind SpeedMPH,Gust SpeedMPH,PrecipitationIn,Events,Conditions,WindDirDegrees,DateUTC
12:15 AM,28.4,14.0,55,29.87,10.0,NW,11.5,17.3,N/A,,Overcast,310,2012-12-06 05:15:00
12:35 AM,28.4,12.2,51,29.88,10.0,NW,13.8,24.2,N/A,,Overcast,310,2012-12-06 05:35:00
12:55 AM,28.4,12.2,51,29.88,10.0,WNW,15.0,24.2,N/A,,Overcast,300,2012-12-06 05:55:00
1:15 AM,26.6,12.2,55,29.88,10.0,NW,16.1,23.0,N/A,,Mostly Cloudy,310,2012-12-06 06:15:00
1:35 AM,26.6,12.2,55,29.89,10.0,WNW,13.8,-,N/A,,Scattered Clouds,300,2012-12-06 06:35:00
1:55 AM,26.6,12.2,55,29.90,10.0,WNW,12.7,-,N/A,,Scattered Clouds,300,2012-12-06 06:55:00
2:15 AM,26.6,12.2,55,29.92,10.0,NW,12.7,19.6,N/A,,Mostly Cloudy,320,2012-12-06 07:15:00
2:35 AM,26.6,12.2,55,29.93,10.0,NW,17.3,20.7,N/A,,Mostly Cloudy,320,2012-12-06 07:35:00
2:55 AM,26.6,12.2,55,29.93,10.0,NW,19.6,28.8,N/A,,Overcast,320,2012-12-06 07:55:00
3:15 AM,26.6,12.2,55,29.95,10.0,NW,16.1,23.0,N/A,,Overcast,310,2012-12-06 08:15:00
3:35 AM,24.8,12.2,59,29.95,10.0,NW,18.4,31.1,N/A,,Overcast,310,2012-12-06 08:35:00
3:55 AM,24.8,12.2,59,29.96,10.0,NW,15.0,26.5,N/A,,Overcast,310,2012-12-06 08:55:00
4:15 AM,24.8,12.2,59,29.98,10.0,NW,15.0,19.6,N/A,,Overcast,320,2012-12-06 09:15:00
4:35 AM,24.8,10.4,54,29.99,10.0,NW,15.0,26.5,N/A,,Overcast,310,2012-12-06 09:35:00
4:55 AM,23.0,10.4,59,30.00,10.0,NNW,27.6,32.2,N/A,,Overcast,340,2012-12-06 09:55:00
5:15 AM,23.0,8.6,54,30.01,10.0,NNW,23.0,32.2,N/A,,Overcast,330,2012-12-06 10:15:00
5:35 AM,21.2,8.6,58,30.02,10.0,NW,16.1,34.5,N/A,,Overcast,310,2012-12-06 10:35:00
5:55 AM,21.2,8.6,58,30.04,10.0,NW,13.8,19.6,N/A,,Overcast,320,2012-12-06 10:55:00
6:15 AM,21.2,8.6,58,30.05,10.0,NW,16.1,24.2,N/A,,Overcast,320,2012-12-06 11:15:00
6:35 AM,21.2,8.6,58,30.06,10.0,NW,16.1,20.7,N/A,,Overcast,320,2012-12-06 11:35:00
6:55 AM,21.2,10.4,63,30.07,10.0,NNW,19.6,26.5,N/A,,Overcast,330,2012-12-06 11:55:00
7:15 AM,21.2,8.6,58,30.08,10.0,NNW,27.6,35.7,N/A,,Overcast,330,2012-12-06 12:15:00
7:35 AM,21.2,8.6,58,30.09,10.0,NNW,18.4,26.5,N/A,,Overcast,330,2012-12-06 12:35:00
7:55 AM,21.2,6.8,54,30.10,10.0,NW,12.7,25.3,N/A,,Overcast,320,2012-12-06 12:55:00
8:15 AM,21.2,8.6,58,30.10,10.0,NNW,19.6,26.5,N/A,,Overcast,330,2012-12-06 13:15:00
8:35 AM,21.2,8.6,58,30.11,10.0,NNW,15.0,-,N/A,,Overcast,330,2012-12-06 13:35:00
8:55 AM,21.2,10.4,63,30.12,7.0,NW,12.7,20.7,N/A,,Overcast,320,2012-12-06 13:55:00
9:15 AM,21.2,8.6,58,30.12,10.0,NNW,15.0,20.7,N/A,,Overcast,330,2012-12-06 14:15:00
9:35 AM,21.2,8.6,58,30.13,10.0,WNW,13.8,19.6,N/A,,Overcast,300,2012-12-06 14:35:00
9:55 AM,21.2,8.6,58,30.13,10.0,WNW,19.6,27.6,N/A,,Overcast,300,2012-12-06 14:55:00
10:15 AM,23.0,8.6,54,30.13,10.0,NW,10.4,23.0,N/A,,Overcast,320,2012-12-06 15:15:00
10:35 AM,23.0,8.6,54,30.13,10.0,NW,12.7,21.9,N/A,,Overcast,310,2012-12-06 15:35:00
10:55 AM,24.8,8.6,50,30.12,10.0,NNW,15.0,24.2,N/A,,Overcast,340,2012-12-06 15:55:00
11:15 AM,24.8,8.6,50,30.12,10.0,NNW,12.7,19.6,N/A,,Scattered Clouds,330,2012-12-06 16:15:00
11:35 AM,24.8,8.6,50,30.12,10.0,NNW,16.1,23.0,N/A,,Mostly Cloudy,340,2012-12-06 16:35:00
11:55 AM,24.8,8.6,50,30.12,10.0,NW,11.5,-,N/A,,Partly Cloudy,320,2012-12-06 16:55:00
12:15 PM,26.6,8.6,47,30.12,10.0,NW,15.0,19.6,N/A,,Clear,310,2012-12-06 17:15:00
12:35 PM,26.6,8.6,47,30.12,10.0,NW,10.4,18.4,N/A,,Clear,320,2012-12-06 17:35:00
12:55 PM,26.6,10.4,51,30.12,10.0,NNW,12.7,-,N/A,,Clear,340,2012-12-06 17:55:00
1:15 PM,26.6,8.6,47,30.13,10.0,NW,12.7,17.3,N/A,,Clear,320,2012-12-06 18:15:00
1:55 PM,26.6,8.6,47,30.13,10.0,NNW,15.0,20.7,N/A,,Clear,330,2012-12-06 18:55:00
2:15 PM,26.6,10.4,51,30.14,10.0,NNW,12.7,-,N/A,,Clear,340,2012-12-06 19:15:00
2:35 PM,26.6,10.4,51,30.14,10.0,NNW,9.2,-,N/A,,Clear,340,2012-12-06 19:35:00
3:35 PM,24.8,8.6,50,30.15,10.0,NNW,10.4,-,N/A,,Clear,340,2012-12-06 20:35:00
3:55 PM,24.8,10.4,54,30.16,10.0,NNW,5.8,-,N/A,,Clear,340,2012-12-06 20:55:00
4:15 PM,23.0,10.4,59,30.16,10.0,North,5.8,-,N/A,,Clear,360,2012-12-06 21:15:00
4:35 PM,23.0,10.4,59,30.16,10.0,North,6.9,-,N/A,,Clear,360,2012-12-06 21:35:00
4:55 PM,23.0,10.4,59,30.17,10.0,North,5.8,-,N/A,,Clear,360,2012-12-06 21:55:00
5:15 PM,21.2,8.6,58,30.18,10.0,NNE,5.8,-,N/A,,Clear,20,2012-12-06 22:15:00
5:35 PM,21.2,8.6,58,30.18,10.0,North,5.8,-,N/A,,Clear,360,2012-12-06 22:35:00
5:55 PM,21.2,10.4,63,30.18,10.0,NNW,6.9,-,N/A,,Clear,340,2012-12-06 22:55:00
6:15 PM,21.2,10.4,63,30.18,10.0,NNW,5.8,-,N/A,,Clear,340,2012-12-06 23:15:00
6:55 PM,19.4,10.4,68,30.18,10.0,North,4.6,-,N/A,,Clear,360,2012-12-06 23:55:00
7:15 PM,19.4,8.6,63,30.17,10.0,NNE,6.9,-,N/A,,Clear,20,2012-12-07 00:15:00
7:35 PM,19.4,10.4,68,30.16,10.0,NNE,5.8,-,N/A,,Clear,20,2012-12-07 00:35:00
7:55 PM,19.4,10.4,68,30.16,10.0,North,3.5,-,N/A,,Clear,10,2012-12-07 00:55:00
8:15 PM,17.6,8.6,68,30.16,10.0,NNW,3.5,-,N/A,,Clear,330,2012-12-07 01:15:00
8:35 PM,19.4,10.4,68,30.17,10.0,Calm,Calm,-,N/A,,Clear,0,2012-12-07 01:35:00
8:55 PM,15.8,8.6,73,30.17,10.0,West,4.6,-,N/A,,Clear,270,2012-12-07 01:55:00
9:15 PM,17.6,8.6,68,30.17,10.0,WNW,4.6,-,N/A,,Clear,300,2012-12-07 02:15:00
9:35 PM,15.8,6.8,68,30.19,10.0,West,4.6,-,N/A,,Clear,280,2012-12-07 02:35:00
9:55 PM,15.8,8.6,73,30.19,10.0,South,3.5,-,N/A,,Clear,170,2012-12-07 02:55:00
10:15 PM,14.0,8.6,79,30.19,10.0,Calm,Calm,-,N/A,,Clear,0,2012-12-07 03:15:00
10:35 PM,15.8,8.6,73,30.18,10.0,Calm,Calm,-,N/A,,Clear,0,2012-12-07 03:35:00
10:55 PM,12.2,6.8,79,30.19,10.0,Calm,Calm,-,N/A,,Clear,0,2012-12-07 03:55:00
11:15 PM,12.2,6.8,79,30.18,10.0,Calm,Calm,-,N/A,,Clear,0,2012-12-07 04:15:00
11:35 PM,12.2,6.8,79,30.18,10.0,Calm,Calm,-,N/A,,Clear,0,2012-12-07 04:35:00
11:55 PM,12.2,8.6,85,30.18,10.0,SSE,3.5,-,N/A,,Clear,160,2012-12-07 04:55:00